createdAt,value
2018-09-21T00:01:44.734Z,94.00
2018-09-21T00:04:14.000Z,94.10
2018-09-21T00:06:42.484Z,94.10
2018-09-21T00:09:12.442Z,94.30
2018-09-21T00:11:41.127Z,94.20
2018-09-21T00:14:09.668Z,94.30
2018-09-21T00:16:38.450Z,94.30
2018-09-21T00:19:06.966Z,94.10
2018-09-21T00:21:35.509Z,94.00
2018-09-21T00:24:04.407Z,93.70
2018-09-21T00:26:33.104Z,93.60
2018-09-21T00:29:01.799Z,93.40
2018-09-21T00:31:30.301Z,93.30
2018-09-21T00:33:59.045Z,93.30
2018-09-21T00:36:27.592Z,93.10
2018-09-21T00:38:56.341Z,93.10
2018-09-21T00:41:24.921Z,93.10
2018-09-21T00:43:53.429Z,93.10
2018-09-21T00:46:21.975Z,93.10
2018-09-21T00:48:50.765Z,93.10
2018-09-21T00:51:19.465Z,93.10
2018-09-21T00:53:48.005Z,93.30
2018-09-21T00:56:16.693Z,93.10
2018-09-21T00:58:45.249Z,93.00
2018-09-21T01:01:14.193Z,93.10
2018-09-21T01:03:42.722Z,93.10
2018-09-21T01:06:11.464Z,93.10
2018-09-21T01:08:39.987Z,93.10
2018-09-21T01:11:08.965Z,93.20
2018-09-21T01:13:37.551Z,93.30
2018-09-21T01:16:06.213Z,93.50
2018-09-21T01:18:34.756Z,93.50
2018-09-21T01:21:03.401Z,93.60
2018-09-21T01:23:32.070Z,93.70
2018-09-21T01:26:00.821Z,93.70
2018-09-21T01:28:29.679Z,93.80
2018-09-21T01:30:58.169Z,94.00
2018-09-21T01:33:26.654Z,94.00
2018-09-21T01:35:55.272Z,94.00
2018-09-21T01:38:23.932Z,94.00
2018-09-21T01:40:52.422Z,94.10
2018-09-21T01:43:21.437Z,94.00
2018-09-21T01:45:49.938Z,94.00
2018-09-21T01:48:18.502Z,94.00
2018-09-21T01:50:47.020Z,94.00
2018-09-21T01:53:16.016Z,94.00
2018-09-21T01:55:44.694Z,94.10
2018-09-21T01:58:13.220Z,94.10
2018-09-21T02:00:41.774Z,94.10
2018-09-21T02:03:10.281Z,94.10
2018-09-21T02:05:39.247Z,94.10
2018-09-21T02:08:07.792Z,94.00
2018-09-21T02:10:36.389Z,94.00
2018-09-21T02:13:04.872Z,94.00
2018-09-21T02:15:33.356Z,93.90
2018-09-21T02:18:02.036Z,93.80
2018-09-21T02:20:30.667Z,93.90
2018-09-21T02:22:59.216Z,93.90
2018-09-21T02:32:12.430Z,93.80
2018-09-21T02:34:41.682Z,93.90
2018-09-21T02:37:10.206Z,94.10
2018-09-21T02:39:39.233Z,94.10
2018-09-21T02:42:07.775Z,94.10
2018-09-21T02:44:36.268Z,94.20
2018-09-21T02:47:04.778Z,94.30
2018-09-21T02:49:33.473Z,94.20
2018-09-21T02:52:01.993Z,94.40
2018-09-21T02:54:30.785Z,94.40
2018-09-21T02:56:59.375Z,94.50
2018-09-21T02:59:28.223Z,94.50
2018-09-21T03:01:56.809Z,94.60
2018-09-21T03:04:25.520Z,94.60
2018-09-21T03:06:54.109Z,94.80
2018-09-21T03:09:22.641Z,94.70
2018-09-21T03:11:51.142Z,94.70
2018-09-21T03:14:19.674Z,94.50
2018-09-21T03:16:48.608Z,94.50
2018-09-21T03:19:17.080Z,94.40
2018-09-21T03:21:45.875Z,94.30
2018-09-21T03:24:14.407Z,94.30
2018-09-21T03:26:43.054Z,94.30
2018-09-21T03:29:11.764Z,94.20
2018-09-21T03:31:40.258Z,94.20
2018-09-21T03:34:08.796Z,94.30
2018-09-21T03:36:37.388Z,94.30
2018-09-21T03:39:08.035Z,94.20
2018-09-21T03:41:36.884Z,94.60
2018-09-21T03:44:05.392Z,95.30
2018-09-21T03:46:33.882Z,96.10
2018-09-21T03:49:02.453Z,96.70
2018-09-21T03:51:31.038Z,97.20
2018-09-21T03:53:59.792Z,97.60
2018-09-21T03:56:28.526Z,98.20
2018-09-21T03:58:57.142Z,98.40
2018-09-21T04:01:25.718Z,98.40
2018-09-21T04:03:54.217Z,98.50
2018-09-21T04:06:22.754Z,98.50
2018-09-21T04:08:51.276Z,98.30
2018-09-21T04:11:19.818Z,98.20
2018-09-21T04:13:48.406Z,98.00
2018-09-21T04:16:17.412Z,98.00
2018-09-21T04:18:45.940Z,98.10
2018-09-21T04:21:14.469Z,98.20
2018-09-21T04:23:43.147Z,98.30
2018-09-21T04:26:11.608Z,98.60
2018-09-21T04:28:40.118Z,98.70
2018-09-21T04:31:14.204Z,98.80
2018-09-21T04:33:42.708Z,99.20
2018-09-21T04:36:11.217Z,99.60
2018-09-21T04:38:39.888Z,99.90
2018-09-21T04:41:09.656Z,99.90
2018-09-21T04:43:38.245Z,99.90
2018-09-21T04:46:07.080Z,99.90
2018-09-21T04:48:35.875Z,99.90
2018-09-21T04:51:04.402Z,99.90
2018-09-21T04:53:32.872Z,99.90
2018-09-21T04:56:01.589Z,99.90
2018-09-21T04:58:30.328Z,99.90
2018-09-21T05:00:58.906Z,99.90
2018-09-21T05:03:27.457Z,99.90
2018-09-21T05:05:55.987Z,99.90
2018-09-21T05:08:24.703Z,99.90
2018-09-21T05:10:53.421Z,99.90
2018-09-21T05:13:21.936Z,99.90
2018-09-21T05:15:50.712Z,99.90
2018-09-21T05:18:19.269Z,99.90
2018-09-21T05:20:47.869Z,99.90
2018-09-21T05:23:16.522Z,99.90
2018-09-21T05:25:45.388Z,99.90
2018-09-21T05:28:14.742Z,99.90
2018-09-21T05:30:43.267Z,99.90
2018-09-21T05:33:11.795Z,99.90
2018-09-21T05:35:40.318Z,99.90
2018-09-21T05:38:08.812Z,99.90
2018-09-21T05:40:37.300Z,99.90
2018-09-21T05:43:06.345Z,99.90
2018-09-21T05:45:34.986Z,99.90
2018-09-21T05:48:03.502Z,99.90
2018-09-21T05:50:32.240Z,99.90
2018-09-21T05:53:00.804Z,99.90
2018-09-21T05:55:29.334Z,99.90
2018-09-21T05:57:58.130Z,99.90
2018-09-21T06:00:26.608Z,99.90
2018-09-21T06:02:55.132Z,99.90
2018-09-21T06:05:23.800Z,99.90
2018-09-21T06:07:52.349Z,99.90
2018-09-21T06:10:21.263Z,99.90
2018-09-21T06:12:49.755Z,99.90
2018-09-21T06:15:18.303Z,99.90
2018-09-21T06:17:46.922Z,99.90
2018-09-21T06:20:15.553Z,99.90
2018-09-21T06:22:45.336Z,99.90
2018-09-21T06:25:13.031Z,99.90
2018-09-21T06:27:41.541Z,99.90
2018-09-21T06:30:10.213Z,99.90
2018-09-21T06:32:38.747Z,99.90
2018-09-21T06:35:07.305Z,99.90
2018-09-21T06:37:35.850Z,99.90
2018-09-21T06:40:04.385Z,99.90
2018-09-21T06:42:33.767Z,99.90
2018-09-21T06:45:02.484Z,99.90
2018-09-21T06:47:31.273Z,99.90
2018-09-21T06:50:00.003Z,99.90
2018-09-21T06:52:28.569Z,99.90
2018-09-21T06:54:57.317Z,99.90
2018-09-21T06:57:26.142Z,99.90
2018-09-21T06:59:54.875Z,99.90
2018-09-21T07:02:23.989Z,99.90
2018-09-21T07:04:52.477Z,99.90
2018-09-21T07:07:21.234Z,99.90
2018-09-21T07:09:49.848Z,99.90
2018-09-21T07:12:24.878Z,99.90
2018-09-21T07:14:53.617Z,99.90
2018-09-21T07:17:22.168Z,99.90
2018-09-21T07:19:50.974Z,99.90
2018-09-21T07:22:19.470Z,99.90
2018-09-21T07:24:48.027Z,99.90
2018-09-21T07:27:16.780Z,99.90
2018-09-21T07:29:45.397Z,99.90
2018-09-21T07:32:14.190Z,99.90
2018-09-21T07:34:42.747Z,99.90
2018-09-21T07:37:11.249Z,99.90
2018-09-21T07:39:39.800Z,99.90
2018-09-21T07:42:08.651Z,99.90
2018-09-21T07:44:37.447Z,99.90
2018-09-21T07:47:05.928Z,99.90
2018-09-21T07:49:34.580Z,99.90
2018-09-21T07:52:03.265Z,99.90
2018-09-21T07:54:32.140Z,99.90
2018-09-21T07:57:00.818Z,99.90
2018-09-21T07:59:29.475Z,99.90
2018-09-21T08:01:58.581Z,99.90
2018-09-21T08:04:27.123Z,99.90
2018-09-21T08:06:55.854Z,99.90
2018-09-21T08:09:24.409Z,99.90
2018-09-21T08:11:53.267Z,99.90
2018-09-21T08:14:21.813Z,99.90
2018-09-21T08:16:50.340Z,99.90
2018-09-21T08:19:19.439Z,99.90
2018-09-21T08:21:47.888Z,99.90
2018-09-21T08:24:16.375Z,99.90
2018-09-21T08:26:44.918Z,99.90
2018-09-21T08:29:13.440Z,99.90
2018-09-21T08:31:41.969Z,99.90
2018-09-21T08:34:10.499Z,99.90
2018-09-21T08:36:39.039Z,99.90
2018-09-21T08:39:09.584Z,99.40
2018-09-21T08:41:38.842Z,98.00
2018-09-21T08:44:07.548Z,97.50
2018-09-21T08:46:36.178Z,98.20
2018-09-21T08:49:04.876Z,97.90
2018-09-21T08:51:33.794Z,96.80
2018-09-21T08:54:02.446Z,96.40
2018-09-21T08:56:30.936Z,95.30
2018-09-21T08:58:59.774Z,95.90
2018-09-21T09:01:28.860Z,95.30
2018-09-21T09:03:57.475Z,94.70
2018-09-21T09:06:26.016Z,93.70
2018-09-21T09:08:54.719Z,91.30
2018-09-21T09:11:23.298Z,90.30
2018-09-21T09:13:52.040Z,90.90
2018-09-21T09:16:20.767Z,91.70
2018-09-21T09:18:49.410Z,91.90
2018-09-21T09:21:17.954Z,92.50
2018-09-21T09:23:46.445Z,93.00
2018-09-21T09:26:14.919Z,93.60
2018-09-21T09:28:43.600Z,93.10
2018-09-21T09:31:12.280Z,92.00
2018-09-21T09:33:41.073Z,92.30
2018-09-21T09:36:09.557Z,92.40
2018-09-21T09:38:38.067Z,92.30
2018-09-21T09:41:06.617Z,93.00
2018-09-21T09:43:35.209Z,92.70
2018-09-21T09:46:04.061Z,92.70
2018-09-21T09:48:32.637Z,92.40
2018-09-21T09:51:01.125Z,93.20
2018-09-21T09:53:29.667Z,92.40
2018-09-21T09:55:58.153Z,92.50
2018-09-21T09:58:27.138Z,92.40
2018-09-21T10:00:55.737Z,92.60
2018-09-21T10:03:25.218Z,92.30
2018-09-21T10:05:53.697Z,92.10
2018-09-21T10:08:22.475Z,91.50
2018-09-21T10:10:51.164Z,91.60
2018-09-21T10:13:19.875Z,91.80
2018-09-21T10:15:48.355Z,92.40
2018-09-21T10:18:17.093Z,93.00
2018-09-21T10:20:46.267Z,93.10
2018-09-21T10:23:14.738Z,92.70
2018-09-21T10:25:43.488Z,93.10
2018-09-21T10:28:12.134Z,93.40
2018-09-21T10:30:40.620Z,93.60
2018-09-21T10:33:09.399Z,93.40
2018-09-21T10:35:38.369Z,93.80
2018-09-21T10:38:07.322Z,93.60
2018-09-21T10:40:35.832Z,93.40
2018-09-21T10:43:04.427Z,94.50
2018-09-21T10:45:33.082Z,92.60
2018-09-21T10:48:01.613Z,92.60
2018-09-21T10:50:30.169Z,91.10
2018-09-21T10:52:58.723Z,89.60
2018-09-21T10:55:27.420Z,87.40
2018-09-21T10:57:55.973Z,86.00
2018-09-21T11:00:24.662Z,76.90
2018-09-21T11:02:53.176Z,72.30
2018-09-21T11:05:22.038Z,70.40
2018-09-21T11:07:50.564Z,70.50
2018-09-21T11:10:19.335Z,70.40
2018-09-21T11:12:47.836Z,69.20
2018-09-21T11:15:16.311Z,70.00
2018-09-21T11:17:44.840Z,64.70
2018-09-21T11:20:13.636Z,64.30
2018-09-21T11:22:42.488Z,62.40
2018-09-21T11:25:11.167Z,64.00
2018-09-21T11:27:40.012Z,63.50
2018-09-21T11:30:08.549Z,66.70
2018-09-21T11:32:37.395Z,64.90
2018-09-21T11:35:06.200Z,64.00
2018-09-21T11:37:34.718Z,60.10
2018-09-21T11:40:03.226Z,58.80
2018-09-21T11:42:31.785Z,59.00
2018-09-21T11:45:00.295Z,59.60
2018-09-21T11:47:28.865Z,59.80
2018-09-21T11:49:57.820Z,57.30
2018-09-21T11:52:26.763Z,55.70
2018-09-21T11:54:55.254Z,56.50
2018-09-21T11:57:23.770Z,57.60
2018-09-21T11:59:52.458Z,58.10
2018-09-21T12:02:21.328Z,57.50
2018-09-21T12:04:50.104Z,55.50
2018-09-21T12:07:18.641Z,56.20
2018-09-21T12:09:47.227Z,57.20
2018-09-21T12:12:15.887Z,55.80
2018-09-21T12:14:50.775Z,55.80
2018-09-21T12:17:19.454Z,57.30
2018-09-21T12:19:48.027Z,57.00
2018-09-21T12:22:16.582Z,56.70
2018-09-21T12:24:45.097Z,56.00
2018-09-21T12:27:13.586Z,56.90
2018-09-21T12:29:42.398Z,56.90
2018-09-21T12:32:11.206Z,58.80
2018-09-21T12:34:39.914Z,59.90
2018-09-21T12:37:08.920Z,62.30
2018-09-21T12:39:37.586Z,63.50
2018-09-21T12:42:06.083Z,60.00
2018-09-21T12:44:34.569Z,59.20
2018-09-21T12:47:03.320Z,59.20
2018-09-21T12:49:33.250Z,60.10
2018-09-21T12:52:01.842Z,60.00
2018-09-21T12:54:30.931Z,58.50
2018-09-21T12:56:59.459Z,57.70
2018-09-21T12:59:27.979Z,58.40
2018-09-21T13:01:56.507Z,58.60
2018-09-21T13:04:25.238Z,58.70
2018-09-21T13:06:53.813Z,58.90
2018-09-21T13:09:22.462Z,59.20
2018-09-21T13:11:50.965Z,59.10
2018-09-21T13:14:20.285Z,59.70
2018-09-21T13:16:48.806Z,59.20
2018-09-21T13:19:17.644Z,58.30
2018-09-21T13:21:46.195Z,57.30
2018-09-21T13:24:14.883Z,56.50
2018-09-21T13:26:43.376Z,57.10
2018-09-21T13:29:12.020Z,58.10
2018-09-21T13:31:40.583Z,58.60
2018-09-21T13:34:09.157Z,58.40
2018-09-21T13:36:38.037Z,55.00
2018-09-21T13:39:09.596Z,53.90
2018-09-21T13:41:38.159Z,54.30
2018-09-21T13:44:07.146Z,52.70
2018-09-21T13:46:35.981Z,53.50
2018-09-21T13:49:05.097Z,54.20
2018-09-21T13:51:33.667Z,53.90
2018-09-21T13:54:02.209Z,52.20
2018-09-21T13:56:30.750Z,51.30
2018-09-21T13:58:59.508Z,50.40
2018-09-21T14:01:28.515Z,50.10
2018-09-21T14:03:57.817Z,50.60
2018-09-21T14:06:26.321Z,51.80
2018-09-21T14:08:54.892Z,52.80
2018-09-21T14:11:23.621Z,52.80
2018-09-21T14:13:52.107Z,53.90
2018-09-21T14:16:20.777Z,54.80
2018-09-21T14:18:49.330Z,55.50
2018-09-21T14:21:17.933Z,56.10
2018-09-21T14:23:46.393Z,56.70
2018-09-21T14:26:14.932Z,56.60
2018-09-21T14:28:43.416Z,57.10
2018-09-21T14:31:11.918Z,57.50
2018-09-21T14:33:40.472Z,57.10
2018-09-21T14:36:09.208Z,56.50
2018-09-21T14:38:37.739Z,57.80
2018-09-21T14:41:06.781Z,57.70
2018-09-21T14:43:35.286Z,58.50
2018-09-21T14:46:03.967Z,59.30
2018-09-21T14:48:32.863Z,58.40
2018-09-21T14:51:01.475Z,57.10
2018-09-21T14:53:29.966Z,57.00
2018-09-21T14:55:58.985Z,55.60
2018-09-21T14:58:27.513Z,55.20
2018-09-21T15:00:56.151Z,52.80
2018-09-21T15:03:24.779Z,52.10
2018-09-21T15:05:53.445Z,51.70
2018-09-21T15:08:22.189Z,52.10
2018-09-21T15:10:50.863Z,52.90
2018-09-21T15:13:19.510Z,53.40
2018-09-21T15:15:48.251Z,54.00
2018-09-21T15:18:17.254Z,53.80
2018-09-21T15:20:46.015Z,55.00
2018-09-21T15:23:14.668Z,56.10
2018-09-21T15:25:43.183Z,55.20
2018-09-21T15:28:11.923Z,56.20
2018-09-21T15:30:40.497Z,56.80
2018-09-21T15:33:09.441Z,56.90
2018-09-21T15:35:37.969Z,57.30
2018-09-21T15:38:06.536Z,57.00
2018-09-21T15:40:35.355Z,57.20
2018-09-21T15:43:03.864Z,57.20
2018-09-21T15:45:32.392Z,57.70
2018-09-21T15:48:00.955Z,55.50
2018-09-21T15:50:29.521Z,54.30
2018-09-21T15:52:59.642Z,54.80
2018-09-21T15:55:28.170Z,56.10
2018-09-21T15:57:57.090Z,56.90
2018-09-21T16:00:26.115Z,57.50
2018-09-21T16:02:55.540Z,58.40
2018-09-21T16:05:24.311Z,58.50
2018-09-21T16:07:52.867Z,58.30
2018-09-21T16:10:21.366Z,57.90
2018-09-21T16:12:49.905Z,56.90
2018-09-21T16:15:19.411Z,56.70
2018-09-21T16:17:48.055Z,56.70
2018-09-21T16:20:16.798Z,56.50
2018-09-21T16:22:45.338Z,57.60
2018-09-21T16:25:14.067Z,55.80
2018-09-21T16:27:42.575Z,55.60
2018-09-21T16:30:11.466Z,55.60
2018-09-21T16:32:44.917Z,55.90
2018-09-21T16:35:14.290Z,55.70
2018-09-21T16:37:44.246Z,55.60
2018-09-21T16:40:13.005Z,56.20
2018-09-21T16:42:41.489Z,57.10
2018-09-21T16:51:54.370Z,56.90
2018-09-21T16:54:23.687Z,57.30
2018-09-21T16:56:52.826Z,57.60
2018-09-21T16:59:21.464Z,58.00
2018-09-21T17:01:50.002Z,58.40
2018-09-21T17:04:18.973Z,59.40
2018-09-21T17:06:49.462Z,60.10
2018-09-21T17:09:18.085Z,60.20
2018-09-21T17:11:46.810Z,61.50
2018-09-21T17:14:15.617Z,62.10
2018-09-21T17:16:44.591Z,62.30
2018-09-21T17:19:14.262Z,63.30
2018-09-21T17:21:42.771Z,64.00
2018-09-21T17:24:11.336Z,64.30
2018-09-21T17:26:39.959Z,65.10
2018-09-21T17:29:08.643Z,65.50
2018-09-21T17:31:38.051Z,66.80
2018-09-21T17:34:06.849Z,67.20
2018-09-21T17:36:35.469Z,67.90
2018-09-21T17:39:05.049Z,68.40
2018-09-21T17:41:33.564Z,69.30
2018-09-21T17:44:02.595Z,69.90
2018-09-21T17:46:31.217Z,70.50
2018-09-21T17:48:59.782Z,70.80
2018-09-21T17:51:28.403Z,71.30
2018-09-21T17:53:57.677Z,71.90
2018-09-21T17:56:26.200Z,72.30
2018-09-21T17:58:55.259Z,72.60
2018-09-21T18:01:24.039Z,72.80
2018-09-21T18:03:52.914Z,73.40
2018-09-21T18:06:21.851Z,73.80
2018-09-21T18:08:50.353Z,74.10
2018-09-21T18:11:20.325Z,74.80
2018-09-21T18:13:48.857Z,75.30
2018-09-21T18:16:18.294Z,75.80
2018-09-21T18:18:47.045Z,76.00
2018-09-21T18:21:15.600Z,77.10
2018-09-21T18:23:44.218Z,77.00
2018-09-21T18:26:13.034Z,77.30
2018-09-21T18:28:41.536Z,77.70
2018-09-21T18:31:10.394Z,78.30
2018-09-21T18:33:39.032Z,79.20
2018-09-21T18:36:08.960Z,80.00
2018-09-21T18:38:39.690Z,80.60
2018-09-21T18:41:09.559Z,81.20
2018-09-21T18:43:39.083Z,81.90
2018-09-21T18:46:08.269Z,82.80
2018-09-21T18:48:36.844Z,83.80
2018-09-21T18:51:06.312Z,84.60
2018-09-21T18:53:34.870Z,85.30
2018-09-21T18:56:03.432Z,86.20
2018-09-21T18:58:32.269Z,87.10
2018-09-21T19:01:00.798Z,87.50
2018-09-21T19:03:29.428Z,87.70
2018-09-21T19:05:57.970Z,88.10
2018-09-21T19:08:26.514Z,88.50
2018-09-21T19:10:56.515Z,88.50
2018-09-21T19:13:25.416Z,89.30
2018-09-21T19:15:54.954Z,88.70
2018-09-21T19:18:24.348Z,89.10
2018-09-21T19:20:52.909Z,89.50
2018-09-21T19:23:21.501Z,90.00
2018-09-21T19:25:50.064Z,90.20
2018-09-21T19:28:18.595Z,90.40
2018-09-21T19:30:47.147Z,90.50
2018-09-21T19:33:15.922Z,90.70
2018-09-21T19:35:44.726Z,91.10
2018-09-21T19:38:14.495Z,91.30
2018-09-21T19:40:43.379Z,91.30
2018-09-21T19:43:11.861Z,91.60
2018-09-21T19:47:09.880Z,91.80
2018-09-21T19:49:38.398Z,92.00
2018-09-21T19:52:06.941Z,92.30
2018-09-21T19:54:35.551Z,92.50
2018-09-21T19:57:04.081Z,92.70
2018-09-21T19:59:32.609Z,93.00
2018-09-21T20:02:01.121Z,93.10
2018-09-21T20:04:29.680Z,93.20
2018-09-21T20:06:58.875Z,93.20
2018-09-21T20:09:27.492Z,93.40
2018-09-21T20:11:56.321Z,93.50
2018-09-21T20:14:24.884Z,93.70
2018-09-21T20:16:53.390Z,93.80
2018-09-21T20:19:23.054Z,94.00
2018-09-21T20:21:51.574Z,94.10
2018-09-21T20:24:20.133Z,94.10
2018-09-21T20:26:48.670Z,94.30
2018-09-21T20:29:17.469Z,94.60
2018-09-21T20:31:51.297Z,94.70
2018-09-21T20:34:19.807Z,95.00
2018-09-21T20:36:48.684Z,95.10
2018-09-21T20:39:18.434Z,95.20
2018-09-21T20:41:47.176Z,95.40
2018-09-21T20:44:16.456Z,95.90
2018-09-21T20:46:45.186Z,96.00
2018-09-21T20:49:13.729Z,96.10
2018-09-21T20:51:42.679Z,96.50
2018-09-21T20:54:11.510Z,96.70
2018-09-21T20:56:40.568Z,96.90
2018-09-21T20:59:09.526Z,97.00
2018-09-21T21:01:38.188Z,97.00
2018-09-21T21:04:06.980Z,97.00
2018-09-21T21:06:35.852Z,97.30
2018-09-21T21:09:06.158Z,97.40
2018-09-21T21:11:34.785Z,97.60
2018-09-21T21:14:03.300Z,97.80
2018-09-21T21:16:32.029Z,98.00
2018-09-21T21:19:07.037Z,98.10
2018-09-21T21:21:35.857Z,98.10
2018-09-21T21:24:04.821Z,98.20
2018-09-21T21:26:33.655Z,98.40
2018-09-21T21:29:02.231Z,98.40
2018-09-21T21:31:31.145Z,98.40
2018-09-21T21:33:59.643Z,98.50
2018-09-21T21:36:28.136Z,98.80
2018-09-21T21:38:56.995Z,98.80
2018-09-21T21:41:26.961Z,98.80
2018-09-21T21:43:55.477Z,98.90
2018-09-21T21:46:23.983Z,99.20
2018-09-21T21:48:53.142Z,99.00
2018-09-21T21:52:51.239Z,98.80
2018-09-21T21:55:19.803Z,98.80
2018-09-21T21:57:48.572Z,98.70
2018-09-21T22:00:18.023Z,98.60
2018-09-21T22:02:48.230Z,98.40
2018-09-21T22:05:16.993Z,98.20
2018-09-21T22:07:45.479Z,97.90
2018-09-21T22:10:13.965Z,97.70
2018-09-21T22:12:47.791Z,97.60
2018-09-21T22:15:18.215Z,97.40
2018-09-21T22:17:47.557Z,97.30
2018-09-21T22:20:19.901Z,97.10
2018-09-21T22:22:48.407Z,97.00
2018-09-21T22:25:16.961Z,96.90
2018-09-21T22:27:45.924Z,96.80
2018-09-21T22:30:14.448Z,96.70
2018-09-21T22:32:43.004Z,96.80
2018-09-21T22:35:11.506Z,96.70
2018-09-21T22:37:40.021Z,96.60
2018-09-21T22:40:08.533Z,96.60
2018-09-21T22:42:37.333Z,96.70
2018-09-21T22:45:06.078Z,96.60
2018-09-21T22:47:34.770Z,96.80
2018-09-21T22:50:03.830Z,96.80
2018-09-21T22:52:32.316Z,96.70
2018-09-21T22:55:00.910Z,96.60
2018-09-21T22:57:29.454Z,96.50
2018-09-21T22:59:58.026Z,96.30
2018-09-21T23:02:26.919Z,96.10
2018-09-21T23:04:55.397Z,95.80
2018-09-21T23:07:23.967Z,95.50
2018-09-21T23:09:52.559Z,95.40
2018-09-21T23:12:21.096Z,95.30
2018-09-21T23:14:49.595Z,95.10
2018-09-21T23:17:18.154Z,95.00
2018-09-21T23:19:46.842Z,94.80
2018-09-21T23:22:15.696Z,94.70
2018-09-21T23:24:44.391Z,94.60
2018-09-21T23:27:12.895Z,94.40
2018-09-21T23:29:41.579Z,94.30
2018-09-21T23:32:10.304Z,94.20
2018-09-21T23:34:39.061Z,94.20
2018-09-21T23:37:07.731Z,94.10
2018-09-21T23:39:36.264Z,94.10
2018-09-21T23:42:04.751Z,94.00
2018-09-21T23:44:33.533Z,94.00
2018-09-21T23:47:02.525Z,93.80
2018-09-21T23:49:31.055Z,93.70
2018-09-21T23:51:59.619Z,93.60
2018-09-21T23:54:28.143Z,93.60
2018-09-21T23:56:56.678Z,93.60
2018-09-21T23:59:25.227Z,94.00
